WLF88S FKYS-FEFF
Flight info
| Callsign | WLF88S |
|---|---|
| Flight time | 1h 9m |
| Altitude | 27000 |
| Route | ARKEV1Q ARKEV UR984 KOGAN/N0449F230 R984 NIRUP NIRUP1B |
| Aircraft | B722/M-SDFGHRWY/C |
Departure
| Time | 2026-05-06 18:02 |
|---|---|
| Airport | Yaoundé Nsimalen International Airport (FKYS) |
Arrival
| Time | 2026-05-06 19:11 |
|---|---|
| Airport | Bangui M'Poko International Airport (FEFF) |
| Time | Latitude | Longitude | Altitude | Speed | Heading |
|---|---|---|---|---|---|
| 2026-05-06 17:29 | 3.71640 | 11.54885 | 2265 ft | 0 kts | 249° |
| 2026-05-06 17:50 | 3.71646 | 11.54901 | 2265 ft | 3 kts | 251° |
| 2026-05-06 17:50 | 3.71652 | 11.54918 | 2265 ft | 3 kts | 244° |
| 2026-05-06 17:50 | 3.71661 | 11.54927 | 2265 ft | 3 kts | 194° |
| 2026-05-06 17:50 | 3.71675 | 11.54924 | 2265 ft | 3 kts | 155° |
| 2026-05-06 17:51 | 3.71693 | 11.54915 | 2265 ft | 3 kts | 156° |
| 2026-05-06 17:51 | 3.71700 | 11.54912 | 2265 ft | 0 kts | 158° |
| 2026-05-06 17:54 | 3.71699 | 11.54913 | 2265 ft | 1 kts | 158° |
| 2026-05-06 17:55 | 3.71672 | 11.54923 | 2265 ft | 7 kts | 158° |
| 2026-05-06 17:55 | 3.71620 | 11.54944 | 2265 ft | 9 kts | 158° |
| 2026-05-06 17:55 | 3.71549 | 11.54961 | 2265 ft | 12 kts | 177° |
| 2026-05-06 17:55 | 3.71490 | 11.55004 | 2264 ft | 12 kts | 97° |
| 2026-05-06 17:56 | 3.71534 | 11.55077 | 2263 ft | 14 kts | 40° |
| 2026-05-06 17:56 | 3.71615 | 11.55147 | 2261 ft | 17 kts | 41° |
| 2026-05-06 17:56 | 3.71723 | 11.55219 | 2260 ft | 21 kts | 27° |
| 2026-05-06 17:56 | 3.71877 | 11.55269 | 2258 ft | 26 kts | 10° |
| 2026-05-06 17:57 | 3.72067 | 11.55303 | 2259 ft | 29 kts | 9° |
| 2026-05-06 17:57 | 3.72278 | 11.55339 | 2260 ft | 32 kts | 10° |
| 2026-05-06 17:57 | 3.72510 | 11.55379 | 2261 ft | 36 kts | 10° |
| 2026-05-06 17:57 | 3.72775 | 11.55426 | 2264 ft | 42 kts | 10° |
| 2026-05-06 17:58 | 3.73068 | 11.55475 | 2264 ft | 42 kts | 9° |
| 2026-05-06 17:58 | 3.73343 | 11.55524 | 2264 ft | 38 kts | 10° |
| 2026-05-06 17:58 | 3.73598 | 11.55569 | 2261 ft | 36 kts | 10° |
| 2026-05-06 17:58 | 3.73729 | 11.55560 | 2261 ft | 10 kts | 336° |
| 2026-05-06 17:59 | 3.73758 | 11.55575 | 2261 ft | 4 kts | 79° |
| 2026-05-06 17:59 | 3.73751 | 11.55591 | 2261 ft | 3 kts | 143° |
| 2026-05-06 17:59 | 3.73725 | 11.55591 | 2261 ft | 6 kts | 191° |
| 2026-05-06 17:59 | 3.73715 | 11.55589 | 2261 ft | 0 kts | 188° |
| 2026-05-06 18:00 | 3.73709 | 11.55588 | 2261 ft | 8 kts | 188° |
| 2026-05-06 18:01 | 3.73462 | 11.55546 | 2263 ft | 64 kts | 189° |
| 2026-05-06 18:01 | 3.72851 | 11.55440 | 2265 ft | 115 kts | 189° |
| 2026-05-06 18:01 | 3.71911 | 11.55286 | 2263 ft | 156 kts | 188° |
| 2026-05-06 18:01 | 3.70787 | 11.55060 | 2483 ft | 174 kts | 188° |
| 2026-05-06 18:02 | 3.69562 | 11.54852 | 2919 ft | 185 kts | 190° |
| 2026-05-06 18:02 | 3.68225 | 11.54613 | 3257 ft | 205 kts | 192° |
| 2026-05-06 18:02 | 3.66768 | 11.54371 | 3873 ft | 217 kts | 191° |
| 2026-05-06 18:02 | 3.65194 | 11.54248 | 4389 ft | 240 kts | 173° |
| 2026-05-06 18:03 | 3.63593 | 11.54856 | 5081 ft | 252 kts | 145° |
| 2026-05-06 18:03 | 3.62433 | 11.56185 | 5914 ft | 260 kts | 116° |
| 2026-05-06 18:03 | 3.61905 | 11.57957 | 6579 ft | 274 kts | 98° |
| 2026-05-06 18:03 | 3.61788 | 11.59867 | 7210 ft | 276 kts | 90° |
| 2026-05-06 18:04 | 3.61771 | 11.61777 | 8100 ft | 272 kts | 91° |
| 2026-05-06 18:04 | 3.61654 | 11.63667 | 8954 ft | 272 kts | 94° |
| 2026-05-06 18:04 | 3.61480 | 11.65553 | 9803 ft | 272 kts | 94° |
| 2026-05-06 18:04 | 3.61332 | 11.67439 | 10523 ft | 273 kts | 92° |
| 2026-05-06 18:05 | 3.61203 | 11.69358 | 11143 ft | 279 kts | 92° |
| 2026-05-06 18:05 | 3.61064 | 11.71303 | 11807 ft | 282 kts | 92° |
| 2026-05-06 18:05 | 3.60917 | 11.73276 | 12467 ft | 286 kts | 92° |
| 2026-05-06 18:05 | 3.60771 | 11.75270 | 13109 ft | 290 kts | 92° |
| 2026-05-06 18:06 | 3.60679 | 11.77294 | 13742 ft | 293 kts | 85° |
| 2026-05-06 18:06 | 3.61006 | 11.79318 | 14298 ft | 296 kts | 75° |
| 2026-05-06 18:06 | 3.61612 | 11.81289 | 14873 ft | 298 kts | 71° |
| 2026-05-06 18:06 | 3.62251 | 11.83281 | 15430 ft | 302 kts | 73° |
| 2026-05-06 18:07 | 3.62795 | 11.85298 | 15994 ft | 306 kts | 75° |
| 2026-05-06 18:07 | 3.63341 | 11.87396 | 16570 ft | 309 kts | 75° |
| 2026-05-06 18:07 | 3.63914 | 11.89456 | 17122 ft | 313 kts | 74° |
| 2026-05-06 18:07 | 3.64518 | 11.91589 | 17673 ft | 316 kts | 74° |
| 2026-05-06 18:08 | 3.65107 | 11.93719 | 18216 ft | 320 kts | 75° |
| 2026-05-06 18:08 | 3.65701 | 11.95882 | 18688 ft | 323 kts | 75° |
| 2026-05-06 18:08 | 3.66296 | 11.98031 | 19169 ft | 325 kts | 75° |
| 2026-05-06 18:08 | 3.66904 | 12.00222 | 19647 ft | 328 kts | 75° |
| 2026-05-06 18:09 | 3.67517 | 12.02433 | 20115 ft | 331 kts | 74° |
| 2026-05-06 18:09 | 3.68131 | 12.04657 | 20581 ft | 333 kts | 74° |
| 2026-05-06 18:09 | 3.68752 | 12.06903 | 21051 ft | 336 kts | 74° |
| 2026-05-06 18:09 | 3.69378 | 12.09164 | 21495 ft | 338 kts | 74° |
| 2026-05-06 18:10 | 3.70008 | 12.11442 | 21934 ft | 341 kts | 74° |
| 2026-05-06 18:10 | 3.70644 | 12.13740 | 22388 ft | 344 kts | 74° |
| 2026-05-06 18:10 | 3.71285 | 12.16058 | 22825 ft | 346 kts | 74° |
| 2026-05-06 18:10 | 3.71932 | 12.18397 | 23133 ft | 354 kts | 74° |
| 2026-05-06 18:11 | 3.72597 | 12.20805 | 23306 ft | 363 kts | 74° |
| 2026-05-06 18:11 | 3.73280 | 12.23274 | 23499 ft | 373 kts | 74° |
| 2026-05-06 18:11 | 3.73979 | 12.25802 | 23669 ft | 381 kts | 74° |
| 2026-05-06 18:11 | 3.74694 | 12.28389 | 23815 ft | 391 kts | 74° |
| 2026-05-06 18:12 | 3.75428 | 12.31046 | 23933 ft | 400 kts | 74° |
| 2026-05-06 18:12 | 3.76172 | 12.33740 | 24269 ft | 402 kts | 74° |
| 2026-05-06 18:12 | 3.76920 | 12.36445 | 24573 ft | 405 kts | 74° |
| 2026-05-06 18:12 | 3.77673 | 12.39170 | 24912 ft | 407 kts | 74° |
| 2026-05-06 18:13 | 3.78432 | 12.41916 | 25246 ft | 409 kts | 74° |
| 2026-05-06 18:13 | 3.79193 | 12.44675 | 25564 ft | 412 kts | 74° |
| 2026-05-06 18:13 | 3.79958 | 12.47445 | 25882 ft | 414 kts | 74° |
| 2026-05-06 18:13 | 3.80728 | 12.50231 | 26185 ft | 417 kts | 74° |
| 2026-05-06 18:14 | 3.81503 | 12.53041 | 26382 ft | 422 kts | 73° |
| 2026-05-06 18:14 | 3.82293 | 12.55899 | 26528 ft | 429 kts | 73° |
| 2026-05-06 18:14 | 3.83093 | 12.58798 | 26673 ft | 435 kts | 73° |
| 2026-05-06 18:14 | 3.83901 | 12.61729 | 26821 ft | 440 kts | 73° |
| 2026-05-06 18:15 | 3.84710 | 12.64658 | 26952 ft | 446 kts | 73° |
| 2026-05-06 18:15 | 3.85541 | 12.67671 | 26949 ft | 454 kts | 73° |
| 2026-05-06 18:15 | 3.86382 | 12.70754 | 26950 ft | 462 kts | 75° |
| 2026-05-06 18:15 | 3.87041 | 12.73927 | 26942 ft | 470 kts | 80° |
| 2026-05-06 18:16 | 3.87424 | 12.77202 | 26936 ft | 477 kts | 84° |
| 2026-05-06 18:16 | 3.87661 | 12.80542 | 26946 ft | 484 kts | 85° |
| 2026-05-06 18:16 | 3.87991 | 12.83906 | 26948 ft | 489 kts | 82° |
| 2026-05-06 18:16 | 3.88498 | 12.87303 | 26946 ft | 495 kts | 80° |
| 2026-05-06 18:17 | 3.88981 | 12.90737 | 26941 ft | 501 kts | 82° |
| 2026-05-06 18:17 | 3.89340 | 12.94209 | 26934 ft | 500 kts | 83° |
| 2026-05-06 18:17 | 3.89695 | 12.97674 | 26931 ft | 500 kts | 82° |
| 2026-05-06 18:17 | 3.90141 | 13.01125 | 26929 ft | 502 kts | 81° |
| 2026-05-06 18:18 | 3.90605 | 13.04590 | 26933 ft | 502 kts | 82° |
| 2026-05-06 18:18 | 3.91007 | 13.08069 | 26926 ft | 502 kts | 83° |
| 2026-05-06 18:18 | 3.91385 | 13.11540 | 26926 ft | 502 kts | 82° |
| 2026-05-06 18:18 | 3.91807 | 13.15010 | 26934 ft | 502 kts | 82° |
| 2026-05-06 18:19 | 3.92252 | 13.18484 | 26930 ft | 503 kts | 82° |
| 2026-05-06 18:19 | 3.92667 | 13.21957 | 26928 ft | 503 kts | 82° |
| 2026-05-06 18:19 | 3.93062 | 13.25434 | 26925 ft | 503 kts | 82° |
| 2026-05-06 18:19 | 3.93477 | 13.28913 | 26925 ft | 503 kts | 82° |
| 2026-05-06 18:20 | 3.93907 | 13.32383 | 26924 ft | 503 kts | 82° |
| 2026-05-06 18:20 | 3.94326 | 13.35862 | 26927 ft | 503 kts | 82° |
| 2026-05-06 18:20 | 3.94730 | 13.39335 | 26923 ft | 503 kts | 82° |
| 2026-05-06 18:20 | 3.95142 | 13.42812 | 26917 ft | 503 kts | 82° |
| 2026-05-06 18:21 | 3.95565 | 13.46285 | 26923 ft | 503 kts | 82° |
| 2026-05-06 18:21 | 3.95983 | 13.49761 | 26914 ft | 503 kts | 82° |
| 2026-05-06 18:21 | 3.96394 | 13.53237 | 26911 ft | 503 kts | 82° |
| 2026-05-06 18:21 | 3.96805 | 13.56716 | 26913 ft | 503 kts | 82° |
| 2026-05-06 18:22 | 3.97224 | 13.60204 | 26909 ft | 503 kts | 82° |
| 2026-05-06 18:22 | 3.97641 | 13.63682 | 26916 ft | 503 kts | 82° |
| 2026-05-06 18:22 | 3.98054 | 13.67158 | 26911 ft | 503 kts | 82° |
| 2026-05-06 18:22 | 3.98467 | 13.70644 | 26913 ft | 503 kts | 82° |
| 2026-05-06 18:23 | 3.98882 | 13.74120 | 26904 ft | 503 kts | 82° |
| 2026-05-06 18:23 | 3.99299 | 13.77601 | 26906 ft | 503 kts | 82° |
| 2026-05-06 18:23 | 3.99713 | 13.81084 | 26899 ft | 503 kts | 82° |
| 2026-05-06 18:23 | 4.00125 | 13.84563 | 26893 ft | 503 kts | 82° |
| 2026-05-06 18:24 | 4.00539 | 13.88045 | 26896 ft | 504 kts | 82° |
| 2026-05-06 18:24 | 4.00956 | 13.91531 | 26896 ft | 504 kts | 82° |
| 2026-05-06 18:24 | 4.01370 | 13.95018 | 26888 ft | 504 kts | 82° |
| 2026-05-06 18:24 | 4.01782 | 13.98500 | 26892 ft | 504 kts | 82° |
| 2026-05-06 18:25 | 4.02196 | 14.01987 | 26886 ft | 504 kts | 82° |
| 2026-05-06 18:25 | 4.02610 | 14.05469 | 26886 ft | 504 kts | 82° |
| 2026-05-06 18:25 | 4.03025 | 14.08955 | 26892 ft | 504 kts | 82° |
| 2026-05-06 18:25 | 4.03431 | 14.12396 | 26886 ft | 504 kts | 82° |
| 2026-05-06 18:26 | 4.03843 | 14.15878 | 26894 ft | 504 kts | 82° |
| 2026-05-06 18:26 | 4.04258 | 14.19364 | 26892 ft | 504 kts | 82° |
| 2026-05-06 18:26 | 4.04671 | 14.22849 | 26884 ft | 504 kts | 82° |
| 2026-05-06 18:26 | 4.05082 | 14.26328 | 26892 ft | 503 kts | 82° |
| 2026-05-06 18:27 | 4.05494 | 14.29813 | 26880 ft | 506 kts | 82° |
| 2026-05-06 18:27 | 4.05913 | 14.33340 | 26884 ft | 513 kts | 82° |
| 2026-05-06 18:27 | 4.06333 | 14.36894 | 26886 ft | 514 kts | 82° |
| 2026-05-06 18:27 | 4.06752 | 14.40453 | 26890 ft | 514 kts | 82° |
| 2026-05-06 18:28 | 4.07173 | 14.44008 | 26886 ft | 514 kts | 82° |
| 2026-05-06 18:28 | 4.07595 | 14.47570 | 26885 ft | 514 kts | 82° |
| 2026-05-06 18:28 | 4.08013 | 14.51125 | 26885 ft | 514 kts | 82° |
| 2026-05-06 18:28 | 4.08432 | 14.54678 | 26892 ft | 514 kts | 82° |
| 2026-05-06 18:29 | 4.08855 | 14.58237 | 26888 ft | 514 kts | 82° |
| 2026-05-06 18:29 | 4.09273 | 14.61791 | 26892 ft | 514 kts | 82° |
| 2026-05-06 18:29 | 4.09691 | 14.65349 | 26881 ft | 514 kts | 82° |
| 2026-05-06 18:29 | 4.10110 | 14.68903 | 26881 ft | 514 kts | 82° |
| 2026-05-06 18:30 | 4.10530 | 14.72460 | 26882 ft | 514 kts | 82° |
| 2026-05-06 18:30 | 4.10949 | 14.76012 | 26885 ft | 514 kts | 82° |
| 2026-05-06 18:30 | 4.11367 | 14.79572 | 26880 ft | 514 kts | 82° |
| 2026-05-06 18:30 | 4.11785 | 14.83121 | 26879 ft | 514 kts | 82° |
| 2026-05-06 18:31 | 4.12203 | 14.86681 | 26881 ft | 514 kts | 82° |
| 2026-05-06 18:31 | 4.12623 | 14.90239 | 26881 ft | 514 kts | 82° |
| 2026-05-06 18:31 | 4.13036 | 14.93753 | 26877 ft | 515 kts | 82° |
| 2026-05-06 18:31 | 4.13459 | 14.97357 | 26881 ft | 515 kts | 82° |
| 2026-05-06 18:32 | 4.13870 | 15.00867 | 26877 ft | 515 kts | 82° |
| 2026-05-06 18:32 | 4.14295 | 15.04474 | 26881 ft | 515 kts | 82° |
| 2026-05-06 18:32 | 4.14713 | 15.08032 | 26875 ft | 515 kts | 82° |
| 2026-05-06 18:32 | 4.15124 | 15.11547 | 26872 ft | 515 kts | 82° |
| 2026-05-06 18:33 | 4.15541 | 15.15102 | 26875 ft | 515 kts | 82° |
| 2026-05-06 18:33 | 4.15958 | 15.18662 | 26878 ft | 515 kts | 82° |
| 2026-05-06 18:33 | 4.16377 | 15.22219 | 26875 ft | 515 kts | 82° |
| 2026-05-06 18:33 | 4.16792 | 15.25777 | 26875 ft | 515 kts | 82° |
| 2026-05-06 18:34 | 4.17208 | 15.29341 | 26874 ft | 515 kts | 82° |
| 2026-05-06 18:34 | 4.17626 | 15.32903 | 26876 ft | 515 kts | 82° |
| 2026-05-06 18:34 | 4.18045 | 15.36468 | 26869 ft | 515 kts | 82° |
| 2026-05-06 18:34 | 4.18461 | 15.40039 | 26866 ft | 515 kts | 82° |
| 2026-05-06 18:35 | 4.18877 | 15.43603 | 26868 ft | 515 kts | 82° |
| 2026-05-06 18:35 | 4.19295 | 15.47166 | 26867 ft | 515 kts | 82° |
| 2026-05-06 18:35 | 4.19711 | 15.50731 | 26869 ft | 515 kts | 82° |
| 2026-05-06 18:35 | 4.20127 | 15.54295 | 26874 ft | 515 kts | 82° |
| 2026-05-06 18:36 | 4.20543 | 15.57862 | 26874 ft | 515 kts | 82° |
| 2026-05-06 18:36 | 4.20958 | 15.61424 | 26870 ft | 515 kts | 82° |
| 2026-05-06 18:36 | 4.21375 | 15.64993 | 26864 ft | 516 kts | 82° |
| 2026-05-06 18:36 | 4.21791 | 15.68565 | 26866 ft | 516 kts | 82° |
| 2026-05-06 18:37 | 4.22206 | 15.72131 | 26862 ft | 516 kts | 82° |
| 2026-05-06 18:37 | 4.22487 | 15.74539 | 26870 ft | 516 kts | 82° |
| 2026-05-06 18:37 | 4.23020 | 15.79267 | 26864 ft | 516 kts | 83° |
| 2026-05-06 18:37 | 4.23285 | 15.82851 | 26859 ft | 516 kts | 86° |
| 2026-05-06 18:38 | 4.23374 | 15.86452 | 26861 ft | 517 kts | 88° |
| 2026-05-06 18:38 | 4.23501 | 15.90041 | 26860 ft | 516 kts | 85° |
| 2026-05-06 18:38 | 4.23769 | 15.93633 | 26868 ft | 516 kts | 84° |
| 2026-05-06 18:38 | 4.24034 | 15.97216 | 26861 ft | 516 kts | 85° |
| 2026-05-06 18:39 | 4.24192 | 16.00810 | 26858 ft | 516 kts | 87° |
| 2026-05-06 18:39 | 4.24332 | 16.04403 | 26858 ft | 516 kts | 86° |
| 2026-05-06 18:39 | 4.24551 | 16.08006 | 26855 ft | 516 kts | 85° |
| 2026-05-06 18:40 | 4.24984 | 16.15180 | 26864 ft | 516 kts | 86° |
| 2026-05-06 18:40 | 4.25144 | 16.18775 | 26863 ft | 516 kts | 86° |
| 2026-05-06 18:40 | 4.25342 | 16.22364 | 26863 ft | 516 kts | 85° |
| 2026-05-06 18:40 | 4.25568 | 16.25957 | 26873 ft | 516 kts | 86° |
| 2026-05-06 18:41 | 4.25704 | 16.28333 | 26862 ft | 516 kts | 86° |
| 2026-05-06 18:41 | 4.25941 | 16.33135 | 26869 ft | 516 kts | 86° |
| 2026-05-06 18:41 | 4.26065 | 16.35521 | 26863 ft | 516 kts | 86° |
| 2026-05-06 18:41 | 4.26274 | 16.39110 | 26867 ft | 517 kts | 86° |
| 2026-05-06 18:42 | 4.26546 | 16.43871 | 26869 ft | 517 kts | 86° |
| 2026-05-06 18:42 | 4.26729 | 16.47469 | 26869 ft | 517 kts | 86° |
| 2026-05-06 18:42 | 4.26855 | 16.49894 | 26866 ft | 517 kts | 86° |
| 2026-05-06 18:42 | 4.27058 | 16.53493 | 26866 ft | 517 kts | 86° |
| 2026-05-06 18:43 | 4.27261 | 16.57086 | 26867 ft | 517 kts | 86° |
| 2026-05-06 18:43 | 4.27453 | 16.60687 | 26871 ft | 517 kts | 86° |
| 2026-05-06 18:43 | 4.27642 | 16.64279 | 26877 ft | 517 kts | 86° |
| 2026-05-06 18:43 | 4.27838 | 16.67834 | 26869 ft | 517 kts | 86° |
| 2026-05-06 18:44 | 4.28039 | 16.71471 | 26868 ft | 518 kts | 86° |
| 2026-05-06 18:44 | 4.28232 | 16.75077 | 26877 ft | 518 kts | 86° |
| 2026-05-06 18:44 | 4.28427 | 16.78679 | 26872 ft | 518 kts | 86° |
| 2026-05-06 18:44 | 4.28625 | 16.82279 | 26871 ft | 518 kts | 86° |
| 2026-05-06 18:45 | 4.28817 | 16.85836 | 26867 ft | 518 kts | 86° |
| 2026-05-06 18:45 | 4.29011 | 16.89485 | 26867 ft | 518 kts | 86° |
| 2026-05-06 18:45 | 4.29205 | 16.93086 | 26867 ft | 518 kts | 86° |
| 2026-05-06 18:45 | 4.29401 | 16.96683 | 26867 ft | 518 kts | 86° |
| 2026-05-06 18:46 | 4.29593 | 17.00240 | 26870 ft | 518 kts | 86° |
| 2026-05-06 18:46 | 4.29783 | 17.03843 | 26873 ft | 518 kts | 86° |
| 2026-05-06 18:46 | 4.29977 | 17.07446 | 26865 ft | 518 kts | 86° |
| 2026-05-06 18:46 | 4.30173 | 17.11044 | 26871 ft | 518 kts | 86° |
| 2026-05-06 18:47 | 4.30365 | 17.14641 | 26871 ft | 518 kts | 86° |
| 2026-05-06 18:47 | 4.30555 | 17.18229 | 26867 ft | 518 kts | 86° |
| 2026-05-06 18:47 | 4.30801 | 17.21833 | 26864 ft | 517 kts | 81° |
| 2026-05-06 18:47 | 4.31838 | 17.25264 | 26871 ft | 516 kts | 64° |
| 2026-05-06 18:48 | 4.33884 | 17.28211 | 26868 ft | 516 kts | 46° |
| 2026-05-06 18:48 | 4.36732 | 17.30377 | 26879 ft | 517 kts | 28° |
| 2026-05-06 18:48 | 4.40127 | 17.31565 | 26883 ft | 519 kts | 11° |
| 2026-05-06 18:48 | 4.43728 | 17.31651 | 26890 ft | 521 kts | 353° |
| 2026-05-06 18:49 | 4.47201 | 17.30626 | 26893 ft | 524 kts | 335° |
| 2026-05-06 18:49 | 4.50225 | 17.28591 | 26807 ft | 528 kts | 318° |
| 2026-05-06 18:49 | 4.52520 | 17.25719 | 26675 ft | 531 kts | 300° |
| 2026-05-06 18:49 | 4.53850 | 17.22284 | 26545 ft | 533 kts | 283° |
| 2026-05-06 18:50 | 4.54097 | 17.18580 | 26409 ft | 535 kts | 265° |
| 2026-05-06 18:50 | 4.53268 | 17.14963 | 26279 ft | 535 kts | 249° |
| 2026-05-06 18:50 | 4.51410 | 17.11738 | 26139 ft | 535 kts | 231° |
| 2026-05-06 18:50 | 4.48694 | 17.09229 | 26009 ft | 533 kts | 213° |
| 2026-05-06 18:51 | 4.45357 | 17.07652 | 25875 ft | 530 kts | 195° |
| 2026-05-06 18:51 | 4.41734 | 17.07157 | 25735 ft | 527 kts | 178° |
| 2026-05-06 18:51 | 4.38154 | 17.07777 | 25606 ft | 522 kts | 160° |
| 2026-05-06 18:51 | 4.34992 | 17.09424 | 25477 ft | 518 kts | 142° |
| 2026-05-06 18:52 | 4.32477 | 17.11963 | 25345 ft | 514 kts | 124° |
| 2026-05-06 18:52 | 4.30879 | 17.15138 | 25224 ft | 511 kts | 107° |
| 2026-05-06 18:52 | 4.30301 | 17.18624 | 25099 ft | 508 kts | 92° |
| 2026-05-06 18:52 | 4.30348 | 17.22160 | 24982 ft | 507 kts | 85° |
| 2026-05-06 18:53 | 4.30698 | 17.25664 | 24853 ft | 506 kts | 83° |
| 2026-05-06 18:53 | 4.31147 | 17.29153 | 24724 ft | 505 kts | 82° |
| 2026-05-06 18:53 | 4.31487 | 17.32657 | 24562 ft | 504 kts | 86° |
| 2026-05-06 18:53 | 4.31584 | 17.36163 | 24330 ft | 502 kts | 89° |
| 2026-05-06 18:54 | 4.31614 | 17.39655 | 24027 ft | 500 kts | 88° |
| 2026-05-06 18:54 | 4.31812 | 17.43119 | 23705 ft | 497 kts | 85° |
| 2026-05-06 18:54 | 4.32115 | 17.46567 | 23369 ft | 495 kts | 85° |
| 2026-05-06 18:54 | 4.32308 | 17.49994 | 22983 ft | 492 kts | 88° |
| 2026-05-06 18:55 | 4.32401 | 17.53409 | 22602 ft | 488 kts | 88° |
| 2026-05-06 18:55 | 4.32555 | 17.56787 | 22226 ft | 485 kts | 86° |
| 2026-05-06 18:55 | 4.32796 | 17.60157 | 21855 ft | 482 kts | 85° |
| 2026-05-06 18:55 | 4.33001 | 17.63501 | 21485 ft | 479 kts | 87° |
| 2026-05-06 18:56 | 4.33133 | 17.66826 | 21120 ft | 476 kts | 88° |
| 2026-05-06 18:56 | 4.33280 | 17.70122 | 20762 ft | 473 kts | 86° |
| 2026-05-06 18:56 | 4.33481 | 17.73396 | 20408 ft | 470 kts | 86° |
| 2026-05-06 18:56 | 4.33677 | 17.76651 | 20056 ft | 467 kts | 87° |
| 2026-05-06 18:57 | 4.33829 | 17.79895 | 19710 ft | 464 kts | 87° |
| 2026-05-06 18:57 | 4.33978 | 17.83115 | 19376 ft | 462 kts | 87° |
| 2026-05-06 18:57 | 4.34156 | 17.86274 | 19036 ft | 459 kts | 86° |
| 2026-05-06 18:57 | 4.34339 | 17.89459 | 18702 ft | 456 kts | 87° |
| 2026-05-06 18:58 | 4.34497 | 17.92630 | 18372 ft | 454 kts | 87° |
| 2026-05-06 18:58 | 4.34649 | 17.95773 | 18025 ft | 451 kts | 87° |
| 2026-05-06 18:58 | 4.34819 | 17.98901 | 17643 ft | 448 kts | 86° |
| 2026-05-06 18:58 | 4.34991 | 18.02004 | 17267 ft | 444 kts | 86° |
| 2026-05-06 18:59 | 4.35147 | 18.05077 | 16888 ft | 439 kts | 87° |
| 2026-05-06 18:59 | 4.35299 | 18.08125 | 16447 ft | 436 kts | 86° |
| 2026-05-06 18:59 | 4.35461 | 18.11145 | 15942 ft | 432 kts | 86° |
| 2026-05-06 18:59 | 4.35621 | 18.14123 | 15440 ft | 419 kts | 86° |
| 2026-05-06 19:00 | 4.35765 | 18.16957 | 14959 ft | 399 kts | 86° |
| 2026-05-06 19:00 | 4.35905 | 18.19675 | 14467 ft | 381 kts | 86° |
| 2026-05-06 19:00 | 4.36042 | 18.22274 | 13985 ft | 367 kts | 86° |
| 2026-05-06 19:00 | 4.36173 | 18.24784 | 13483 ft | 356 kts | 86° |
| 2026-05-06 19:01 | 4.36300 | 18.27237 | 12911 ft | 347 kts | 86° |
| 2026-05-06 19:01 | 4.36424 | 18.29623 | 12291 ft | 340 kts | 86° |
| 2026-05-06 19:01 | 4.36542 | 18.31963 | 11682 ft | 333 kts | 86° |
| 2026-05-06 19:01 | 4.36210 | 18.34231 | 11082 ft | 330 kts | 104° |
| 2026-05-06 19:02 | 4.35366 | 18.36355 | 10496 ft | 328 kts | 115° |
| 2026-05-06 19:02 | 4.33962 | 18.38116 | 9911 ft | 321 kts | 137° |
| 2026-05-06 19:02 | 4.31970 | 18.39026 | 9287 ft | 316 kts | 166° |
| 2026-05-06 19:02 | 4.29811 | 18.38975 | 8683 ft | 306 kts | 181° |
| 2026-05-06 19:03 | 4.27704 | 18.39116 | 8087 ft | 303 kts | 162° |
| 2026-05-06 19:03 | 4.25773 | 18.39921 | 7511 ft | 300 kts | 146° |
| 2026-05-06 19:03 | 4.24102 | 18.41157 | 6951 ft | 299 kts | 135° |
| 2026-05-06 19:03 | 4.22688 | 18.42670 | 6394 ft | 298 kts | 127° |
| 2026-05-06 19:04 | 4.21530 | 18.44392 | 5858 ft | 297 kts | 118° |
| 2026-05-06 19:04 | 4.20656 | 18.46217 | 5416 ft | 293 kts | 109° |
| 2026-05-06 19:04 | 4.20065 | 18.48151 | 4964 ft | 287 kts | 103° |
| 2026-05-06 19:04 | 4.19700 | 18.50056 | 4492 ft | 270 kts | 98° |
| 2026-05-06 19:05 | 4.19542 | 18.51913 | 4034 ft | 266 kts | 92° |
| 2026-05-06 19:05 | 4.19589 | 18.53743 | 3611 ft | 256 kts | 82° |
| 2026-05-06 19:05 | 4.20029 | 18.55362 | 3601 ft | 229 kts | 73° |
| 2026-05-06 19:05 | 4.20486 | 18.56811 | 3588 ft | 206 kts | 73° |
| 2026-05-06 19:06 | 4.21147 | 18.57983 | 3513 ft | 189 kts | 42° |
| 2026-05-06 19:06 | 4.22363 | 18.58493 | 3021 ft | 198 kts | 2° |
| 2026-05-06 19:06 | 4.23654 | 18.58213 | 2853 ft | 184 kts | 330° |
| 2026-05-06 19:06 | 4.24691 | 18.57558 | 2842 ft | 173 kts | 326° |
| 2026-05-06 19:07 | 4.25690 | 18.56901 | 2803 ft | 173 kts | 326° |
| 2026-05-06 19:07 | 4.26701 | 18.56233 | 2792 ft | 175 kts | 326° |
| 2026-05-06 19:07 | 4.27721 | 18.55564 | 2656 ft | 177 kts | 326° |
| 2026-05-06 19:07 | 4.28771 | 18.54922 | 2449 ft | 175 kts | 333° |
| 2026-05-06 19:08 | 4.29866 | 18.54528 | 2317 ft | 160 kts | 343° |
| 2026-05-06 19:08 | 4.30910 | 18.54254 | 2102 ft | 152 kts | 346° |
| 2026-05-06 19:08 | 4.31943 | 18.54013 | 1954 ft | 156 kts | 346° |
| 2026-05-06 19:08 | 4.33014 | 18.53733 | 1852 ft | 161 kts | 344° |
| 2026-05-06 19:09 | 4.34077 | 18.53438 | 1728 ft | 154 kts | 345° |
| 2026-05-06 19:09 | 4.35091 | 18.53187 | 1582 ft | 146 kts | 345° |
| 2026-05-06 19:09 | 4.36049 | 18.52948 | 1453 ft | 139 kts | 345° |
| 2026-05-06 19:09 | 4.36987 | 18.52700 | 1370 ft | 139 kts | 344° |
| 2026-05-06 19:10 | 4.37902 | 18.52460 | 1254 ft | 135 kts | 345° |
| 2026-05-06 19:10 | 4.38769 | 18.52238 | 1191 ft | 122 kts | 344° |
| 2026-05-06 19:10 | 4.39521 | 18.52039 | 1203 ft | 96 kts | 344° |
| 2026-05-06 19:10 | 4.40045 | 18.51904 | 1206 ft | 67 kts | 345° |
| 2026-05-06 19:11 | 4.40356 | 18.51823 | 1206 ft | 38 kts | 345° |
| 2026-05-06 19:11 | 4.40447 | 18.51855 | 1205 ft | 15 kts | 73° |
| 2026-05-06 19:11 | 4.40477 | 18.51965 | 1205 ft | 17 kts | 77° |
| 2026-05-06 19:11 | 4.40501 | 18.52079 | 1207 ft | 13 kts | 93° |
| 2026-05-06 19:12 | 4.40430 | 18.52124 | 1208 ft | 14 kts | 165° |
| 2026-05-06 19:12 | 4.40400 | 18.52200 | 1208 ft | 13 kts | 77° |
| 2026-05-06 19:12 | 4.40395 | 18.52240 | 1208 ft | 5 kts | 138° |
| 2026-05-06 19:12 | 4.40368 | 18.52236 | 1208 ft | 6 kts | 236° |
| 2026-05-06 19:13 | 4.40362 | 18.52222 | 1208 ft | 0 kts | 247° |